Home > Products > Valid Products > TAF

000
FTUS45 KREV 230500
TAFRNO
TAF
KRNO 230529Z 2306/2406 29008KT 3SM HZ FU SCT001 BKN040
     FM230800 VRB03KT 6SM HZ SCT050 SCT200
     FM232000 17011G18KT P6SM FEW050 SCT200
     FM232300 26014G22KT 3SM FU HZ SCT060 SCT200
     FM240400 28007KT 5SM HZ SCT200=



000
FTUS45 KREV 230500
TAFRNO
TAF
KRNO 230529Z 2306/2406 29008KT 3SM HZ FU SCT001 BKN040
     FM230800 VRB03KT 6SM HZ SCT050 SCT200
     FM232000 17011G18KT P6SM FEW050 SCT200
     FM232300 26014G22KT 3SM FU HZ SCT060 SCT200
     FM240400 28007KT 5SM HZ SCT200=



000
FTUS45 KREV 230100 CCA
TAFRNO
TAF COR
KRNO 230108Z 2301/2324 32011KT 2SM FU HZ SCT001 BKN080
     FM230300 VRB04KT 3SM HZ SCT080 SCT200
     FM230700 VRB03KT P6SM SCT200
     FM232200 23009KT 5SM FU HZ SCT200=



000
FTUS45 KREV 230100 CCA
TAFRNO
TAF COR
KRNO 230108Z 2301/2324 32011KT 2SM FU HZ SCT001 BKN080
     FM230300 VRB04KT 3SM HZ SCT080 SCT200
     FM230700 VRB03KT P6SM SCT200
     FM232200 23009KT 5SM FU HZ SCT200=



000
FTUS45 KREV 230100 AAA
TAFRNO
TAF AMD
KRNO 230107Z 2301/2324 32011KT 1SM FU HZ SCT001 BKN080
     FM230300 VRB04KT 3SM HZ SCT080 SCT200
     FM230700 VRB03KT P6SM SCT200
     FM232200 23009KT 5SM FU HZ SCT200=



000
FTUS45 KREV 230100 AAA
TAFRNO
TAF AMD
KRNO 230107Z 2301/2324 32011KT 1SM FU HZ SCT001 BKN080
     FM230300 VRB04KT 3SM HZ SCT080 SCT200
     FM230700 VRB03KT P6SM SCT200
     FM232200 23009KT 5SM FU HZ SCT200=



000
FTUS45 KREV 222300
TAFRNO
TAF
KRNO 222339Z 2300/2324 33008KT 5SM FU HZ FEW080 SCT200
     FM230300 VRB04KT 5SM HZ SCT200
     FM230700 VRB03KT P6SM SCT200
     FM232200 23009KT 5SM FU HZ SCT200=



000
FTUS45 KREV 222300
TAFRNO
TAF
KRNO 222339Z 2300/2324 33008KT 5SM FU HZ FEW080 SCT200
     FM230300 VRB04KT 5SM HZ SCT200
     FM230700 VRB03KT P6SM SCT200
     FM232200 23009KT 5SM FU HZ SCT200=



000
FTUS45 KREV 222000 AAA
TAFRNO
TAF AMD
KRNO 222033Z 2221/2318 27009KT 5SM FU HZ FEW090 SCT200
     FM222200 27009KT 2SM FU HZ FEW100 SCT200
     FM230200 VRB04KT 5SM HZ SCT200
     FM230700 VRB03KT P6SM SCT200=



000
FTUS45 KREV 222000 AAA
TAFRNO
TAF AMD
KRNO 222033Z 2221/2318 27009KT 5SM FU HZ FEW090 SCT200
     FM222200 27009KT 2SM FU HZ FEW100 SCT200
     FM230200 VRB04KT 5SM HZ SCT200
     FM230700 VRB03KT P6SM SCT200=



000
FTUS45 KREV 221700
TAFRNO
TAF
KRNO 221724Z 2218/2318 16008KT 5SM HZ SCT200
     FM222000 27009KT 2SM FU HZ FEW100 SCT200
     FM230200 VRB04KT 5SM HZ SCT200
     FM230700 VRB03KT P6SM SCT200=



000
FTUS45 KREV 221700
TAFRNO
TAF
KRNO 221724Z 2218/2318 16008KT 5SM HZ SCT200
     FM222000 27009KT 2SM FU HZ FEW100 SCT200
     FM230200 VRB04KT 5SM HZ SCT200
     FM230700 VRB03KT P6SM SCT200=



000
FTUS45 KREV 221100
TAFRNO
TAF
KRNO 221131Z 2212/2312 VRB04KT P6SM SCT200
     FM221700 16008KT 5SM HZ SCT200
     FM222000 27009KT 2SM FU HZ FEW100 SCT200
     FM230200 VRB04KT 5SM HZ SCT200
     FM230700 VRB03KT P6SM SCT200=



000
FTUS45 KREV 221100
TAFRNO
TAF
KRNO 221131Z 2212/2312 VRB04KT P6SM SCT200
     FM221700 16008KT 5SM HZ SCT200
     FM222000 27009KT 2SM FU HZ FEW100 SCT200
     FM230200 VRB04KT 5SM HZ SCT200
     FM230700 VRB03KT P6SM SCT200=



000
FTUS45 KREV 220500
TAFRNO
TAF
KRNO 220523Z 2206/2306 VRB04KT P6SM SCT200
     FM221700 16008KT 5SM HZ SCT200
     FM222200 27009KT 2SM FU HZ FEW100 SCT200
     FM230500 VRB04KT 5SM HZ SCT200=



000
FTUS45 KREV 220500
TAFRNO
TAF
KRNO 220523Z 2206/2306 VRB04KT P6SM SCT200
     FM221700 16008KT 5SM HZ SCT200
     FM222200 27009KT 2SM FU HZ FEW100 SCT200
     FM230500 VRB04KT 5SM HZ SCT200=



000
FTUS45 KREV 212300
TAFRNO
TAF
KRNO 212340Z 2200/2224 30011KT 4SM FU HZ FEW035 SCT100 BKN180
     FM220300 VRB04KT 5SM HZ SCT040 SCT100 BKN200
     FM222100 23009KT 5SM FU HZ FEW100 SCT200=



000
FTUS45 KREV 211700
TAFRNO
TAF
KRNO 211738Z 2118/2218 11011KT P6SM FEW070 SCT090 BKN140
     FM211900 16010KT P6SM SCT070 BKN140
     FM212200 29011G19KT P6SM VCSH SCT070 BKN140
     FM220300 VRB04KT P6SM SCT100=



000
FTUS45 KREV 211700
TAFRNO
TAF
KRNO 211738Z 2118/2218 11011KT P6SM FEW070 SCT090 BKN140
     FM211900 16010KT P6SM SCT070 BKN140
     FM212200 29011G19KT P6SM VCSH SCT070 BKN140
     FM220300 VRB04KT P6SM SCT100=



000
FTUS45 KREV 211100
TAFRNO
TAF
KRNO 211125Z 2112/2212 VRB03KT P6SM SCT120 BKN150
     FM211600 11011KT P6SM SCT090 BKN140
     FM211900 16011G18KT P6SM VCSH SCT040 BKN080
     FM212200 29011G19KT P6SM SCT080 BKN140
     FM220300 VRB04KT P6SM SCT100=



000
FTUS45 KREV 211100
TAFRNO
TAF
KRNO 211125Z 2112/2212 VRB03KT P6SM SCT120 BKN150
     FM211600 11011KT P6SM SCT090 BKN140
     FM211900 16011G18KT P6SM VCSH SCT040 BKN080
     FM212200 29011G19KT P6SM SCT080 BKN140
     FM220300 VRB04KT P6SM SCT100=



000
FTUS45 KREV 210500
TAFRNO
TAF
KRNO 210524Z 2106/2206 VRB04KT P6SM SCT100 BKN200
     FM210800 VRB03KT P6SM VCSH SCT060 BKN100
     FM211600 11011KT P6SM VCSH SCT040 BKN080
     FM211900 16011G18KT P6SM VCSH SCT040 BKN080
     FM212200 29011G19KT P6SM SCT050 BKN100
     FM220200 34006KT P6SM SCT100=



000
FTUS45 KREV 202300
TAFRNO
TAF
KRNO 202328Z 2100/2124 10007KT P6SM SCT090 BKN150
     FM210600 VRB03KT P6SM VCSH SCT050 BKN100
     FM212100 33007KT P6SM VCSH SCT040 BKN100=



000
FTUS45 KREV 202300
TAFRNO
TAF
KRNO 202328Z 2100/2124 10007KT P6SM SCT090 BKN150
     FM210600 VRB03KT P6SM VCSH SCT050 BKN100
     FM212100 33007KT P6SM VCSH SCT040 BKN100=



000
FTUS45 KREV 201700
TAFRNO
TAF
KRNO 201722Z 2018/2118 VRB04KT P6SM FEW100
     FM202000 10008KT P6SM SCT100
     FM210100 10007KT P6SM SCT080 BKN140
     FM210600 VRB03KT P6SM VCSH SCT050 BKN080=



000
FTUS45 KREV 201700
TAFRNO
TAF
KRNO 201722Z 2018/2118 VRB04KT P6SM FEW100
     FM202000 10008KT P6SM SCT100
     FM210100 10007KT P6SM SCT080 BKN140
     FM210600 VRB03KT P6SM VCSH SCT050 BKN080=



000
FTUS45 KREV 201100
TAFRNO
TAF
KRNO 201120Z 2012/2112 VRB04KT P6SM FEW100
     FM202000 10008KT P6SM SCT100
     FM210100 10007KT P6SM SCT080 BKN140
     FM210600 VRB03KT P6SM VCSH SCT050 BKN080=



000
FTUS45 KREV 201100
TAFRNO
TAF
KRNO 201120Z 2012/2112 VRB04KT P6SM FEW100
     FM202000 10008KT P6SM SCT100
     FM210100 10007KT P6SM SCT080 BKN140
     FM210600 VRB03KT P6SM VCSH SCT050 BKN080=



    US Dept of Commerce
    National Oceanic and Atmospheric Administration
    National Weather Service
    1325 East West Highway
    Silver Spring, MD 20910
    Page Author: NWS Internet Services Team
Disclaimer
Information Quality
Credits
Glossary
Privacy Policy
Freedom of Information Act (FOIA)
About Us
Career Opportunities